Time;durP1;ratioP1;P1;durP2;ratioP2;P2;SDS_P1;SDS_P2;PMS_P1;PMS_P2;Temp;Humidity;BMP_temperature;BMP_pressure;BME280_temperature;BME280_humidity;BME280_pressure;Samples;Min_cycle;Max_cycle;Signal;HPM_P1;HPM_P2
2022/08/25 00:00:39;;;;;;;4.07;3.67;;;27.30;90.20;;;;;;5043103;28;20036;-78
2022/08/25 00:03:05;;;;;;;6.45;4.13;;;27.40;90.20;;;;;;5054659;28;20411;-78
2022/08/25 00:05:31;;;;;;;7.05;4.78;;;27.30;90.20;;;;;;5056223;28;20102;-78
2022/08/25 00:07:56;;;;;;;4.75;4.35;;;27.40;90.30;;;;;;5055679;28;20025;-77
2022/08/25 00:10:23;;;;;;;6.75;4.50;;;27.30;90.30;;;;;;5049851;28;20040;-77
2022/08/25 00:12:48;;;;;;;5.20;4.70;;;27.30;90.30;;;;;;5035440;28;20030;-76
2022/08/25 00:15:14;;;;;;;7.22;4.55;;;27.20;90.30;;;;;;5034529;28;20055;-78
2022/08/25 00:17:40;;;;;;;6.72;4.45;;;27.30;90.40;;;;;;5035838;28;20021;-75
2022/08/25 00:20:08;;;;;;;5.63;4.55;;;27.30;90.40;;;;;;5035552;28;20017;-79
2022/08/25 00:22:34;;;;;;;6.80;4.78;;;27.20;90.40;;;;;;5041464;28;20022;-75
2022/08/25 00:24:59;;;;;;;7.80;4.53;;;27.20;90.40;;;;;;5045534;28;20082;-76
2022/08/25 00:27:26;;;;;;;7.45;4.78;;;27.20;90.40;;;;;;5055349;28;20099;-80
2022/08/25 00:29:51;;;;;;;6.68;5.07;;;27.20;90.40;;;;;;5055271;28;20109;-79
2022/08/25 00:32:17;;;;;;;6.07;4.70;;;27.10;90.50;;;;;;5037833;28;20120;-80
2022/08/25 00:34:43;;;;;;;6.20;5.38;;;27.10;90.70;;;;;;5053594;28;20032;-75
2022/08/25 00:37:09;;;;;;;7.25;5.60;;;27.10;90.60;;;;;;5055441;28;20025;-75
2022/08/25 00:39:35;;;;;;;8.23;6.05;;;27.00;90.90;;;;;;5055211;28;20074;-77
2022/08/25 00:42:03;;;;;;;5.78;5.28;;;27.00;90.70;;;;;;5041974;28;20048;-80
2022/08/25 00:44:31;;;;;;;6.97;6.25;;;27.00;90.80;;;;;;5035112;28;20045;-78
2022/08/25 00:46:59;;;;;;;7.22;5.43;;;27.00;90.80;;;;;;5035229;28;20034;-78
2022/08/25 00:49:37;;;;;;;6.50;5.90;;;26.90;90.90;;;;;;5035245;28;20096;-80
2022/08/25 00:52:11;;;;;;;10.23;5.40;;;26.90;90.90;;;;;;5034386;28;20037;-75
2022/08/25 00:54:50;;;;;;;6.63;5.28;;;26.80;91.00;;;;;;5051136;28;20020;-76
2022/08/25 00:57:21;;;;;;;8.45;5.38;;;26.90;90.90;;;;;;5054975;28;20039;-76
2022/08/25 00:59:47;;;;;;;5.35;4.75;;;26.80;90.90;;;;;;5054808;28;20501;-78
2022/08/25 01:02:14;;;;;;;11.18;5.88;;;26.90;90.80;;;;;;5042169;28;20025;-78
2022/08/25 01:04:44;;;;;;;8.07;5.40;;;26.90;90.80;;;;;;5035013;28;20032;-75
2022/08/25 01:07:11;;;;;;;5.30;4.78;;;26.90;90.70;;;;;;5034945;28;20503;-76
2022/08/25 01:09:37;;;;;;;7.38;5.15;;;26.90;90.70;;;;;;5034070;28;20022;-75
2022/08/25 01:12:04;;;;;;;6.00;4.85;;;26.80;90.80;;;;;;5034321;28;20087;-80
2022/08/25 01:14:31;;;;;;;8.02;4.90;;;26.80;90.90;;;;;;5034852;28;20053;-76
2022/08/25 01:16:58;;;;;;;6.18;4.88;;;26.80;90.90;;;;;;5034738;28;20025;-81
2022/08/25 01:19:26;;;;;;;7.10;4.50;;;26.80;90.90;;;;;;5034613;28;20395;-75
2022/08/25 01:21:52;;;;;;;5.25;4.75;;;26.80;90.70;;;;;;5033206;28;20561;-81
2022/08/25 01:24:30;;;;;;;5.22;4.72;;;26.80;90.70;;;;;;5034628;28;20025;-79
2022/08/25 01:26:56;;;;;;;6.45;4.55;;;26.80;90.70;;;;;;5034005;28;20033;-75
2022/08/25 01:29:25;;;;;;;4.90;4.30;;;26.80;90.60;;;;;;5034589;28;20375;-78
2022/08/25 01:32:00;;;;;;;4.95;4.47;;;26.80;90.60;;;;;;5039058;28;20029;-79
2022/08/25 01:34:28;;;;;;;5.95;4.57;;;26.80;90.60;;;;;;5054290;28;20352;-75
2022/08/25 01:36:55;;;;;;;9.48;4.90;;;26.80;90.60;;;;;;5054294;28;20031;-75
2022/08/25 01:39:21;;;;;;;7.03;4.25;;;26.80;90.60;;;;;;5054039;28;20383;-76
2022/08/25 01:41:53;;;;;;;8.15;5.00;;;26.80;90.50;;;;;;5048168;28;20320;-75
2022/08/25 01:44:19;;;;;;;5.65;4.03;;;26.90;90.60;;;;;;5054053;28;20025;-79
2022/08/25 01:46:45;;;;;;;4.90;4.50;;;26.80;90.50;;;;;;5054252;28;20025;-76
2022/08/25 01:49:10;;;;;;;5.93;4.82;;;26.80;90.60;;;;;;5053093;28;20025;-76
2022/08/25 01:51:46;;;;;;;6.43;4.60;;;26.80;90.60;;;;;;5040060;28;20129;-79
2022/08/25 01:54:11;;;;;;;5.55;4.10;;;26.80;90.60;;;;;;5034173;28;20104;-77
2022/08/25 01:56:37;;;;;;;6.68;4.32;;;26.80;90.60;;;;;;5033801;28;20113;-76
2022/08/25 01:59:03;;;;;;;7.65;4.32;;;26.70;90.60;;;;;;5034743;28;20032;-75
2022/08/25 02:01:29;;;;;;;9.48;5.07;;;26.70;90.70;;;;;;5033850;28;20424;-76
2022/08/25 02:03:56;;;;;;;5.05;4.55;;;26.70;90.70;;;;;;5034010;28;20053;-78
2022/08/25 02:06:27;;;;;;;7.13;5.22;;;26.70;90.70;;;;;;5033671;28;20047;-77
2022/08/25 02:08:54;;;;;;;5.97;5.38;;;26.60;90.70;;;;;;5033070;28;20021;-80
2022/08/25 02:11:22;;;;;;;8.35;5.15;;;26.60;90.80;;;;;;5045905;28;20037;-78
2022/08/25 02:13:49;;;;;;;6.10;5.40;;;26.60;90.70;;;;;;5033869;28;20017;-77
2022/08/25 02:16:19;;;;;;;7.40;5.68;;;26.60;90.70;;;;;;5033627;28;20033;-77
2022/08/25 02:18:46;;;;;;;6.40;5.20;;;26.60;90.70;;;;;;5033358;28;20072;-79
2022/08/25 02:21:13;;;;;;;6.90;5.25;;;26.60;90.70;;;;;;5032609;28;20041;-77
2022/08/25 02:23:39;;;;;;;5.72;5.05;;;26.50;90.80;;;;;;5033412;28;20392;-80
2022/08/25 02:26:04;;;;;;;7.20;5.60;;;26.50;90.80;;;;;;5033423;28;20115;-81
2022/08/25 02:28:30;;;;;;;6.47;5.85;;;26.50;90.80;;;;;;5035238;28;20482;-77
2022/08/25 02:30:56;;;;;;;6.25;5.60;;;26.50;90.80;;;;;;5053307;28;20028;-80
2022/08/25 02:33:22;;;;;;;6.68;6.05;;;26.50;90.80;;;;;;5053386;28;20025;-79
2022/08/25 02:35:47;;;;;;;7.20;6.30;;;26.50;90.80;;;;;;5051309;28;20402;-80
2022/08/25 02:38:13;;;;;;;7.07;6.35;;;26.50;90.80;;;;;;5032974;28;20033;-80
2022/08/25 02:40:39;;;;;;;7.45;5.93;;;26.40;90.70;;;;;;5033274;28;20066;-79
2022/08/25 02:43:05;;;;;;;9.88;6.15;;;26.40;90.70;;;;;;5035825;28;20100;-78
2022/08/25 02:45:31;;;;;;;5.53;5.03;;;26.40;90.70;;;;;;5046461;28;20028;-79
2022/08/25 02:47:56;;;;;;;6.88;5.30;;;26.40;90.80;;;;;;5048577;28;20024;-78
2022/08/25 02:50:22;;;;;;;8.23;6.47;;;26.40;90.90;;;;;;5032784;28;20079;-79
2022/08/25 02:52:49;;;;;;;6.93;6.22;;;26.40;90.80;;;;;;5035425;28;20047;-77
2022/08/25 02:55:16;;;;;;;7.30;6.25;;;26.40;90.70;;;;;;5037984;28;20017;-75
2022/08/25 02:57:42;;;;;;;7.68;6.32;;;26.30;90.70;;;;;;5040735;28;20044;-76
2022/08/25 03:00:11;;;;;;;8.15;6.40;;;26.30;90.80;;;;;;5036526;28;20021;-78
2022/08/25 03:02:39;;;;;;;10.40;6.13;;;26.30;90.80;;;;;;5043171;28;20039;-79
2022/08/25 03:05:06;;;;;;;7.18;6.13;;;26.30;90.80;;;;;;5052901;28;20024;-78
2022/08/25 03:07:33;;;;;;;8.02;7.07;;;26.20;90.80;;;;;;5052488;28;20025;-77
2022/08/25 03:09:58;;;;;;;6.47;5.88;;;26.20;90.90;;;;;;5039073;28;20040;-75
2022/08/25 03:12:24;;;;;;;7.20;6.47;;;26.10;90.90;;;;;;5037433;28;20037;-75
2022/08/25 03:14:50;;;;;;;8.48;6.93;;;26.20;90.90;;;;;;5052758;28;20351;-76
2022/08/25 03:17:15;;;;;;;7.40;6.45;;;26.10;90.90;;;;;;5052776;28;20055;-77
2022/08/25 03:19:41;;;;;;;9.10;7.18;;;26.00;90.80;;;;;;5043576;28;20033;-79
2022/08/25 03:22:06;;;;;;;8.43;7.63;;;26.00;90.80;;;;;;5052501;28;20475;-76
2022/08/25 03:24:32;;;;;;;8.90;6.50;;;26.00;90.80;;;;;;5052982;28;20459;-79
2022/08/25 03:26:58;;;;;;;8.82;7.85;;;26.00;90.80;;;;;;5052506;28;20075;-78
2022/08/25 03:29:26;;;;;;;8.50;7.25;;;26.00;90.80;;;;;;5045776;28;20021;-75
2022/08/25 03:31:53;;;;;;;10.07;6.70;;;25.90;90.80;;;;;;5031388;28;20034;-76
2022/08/25 03:34:22;;;;;;;7.35;6.75;;;26.00;90.70;;;;;;5036809;28;20056;-77
2022/08/25 03:36:50;;;;;;;7.88;7.00;;;26.00;90.70;;;;;;5046276;28;20048;-78
2022/08/25 03:39:17;;;;;;;12.82;7.10;;;26.00;90.70;;;;;;5048965;28;20022;-76
2022/08/25 03:41:43;;;;;;;7.85;7.13;;;26.00;90.60;;;;;;5047200;28;20113;-78
2022/08/25 03:44:09;;;;;;;7.72;7.03;;;26.00;90.50;;;;;;5045998;28;20021;-77
2022/08/25 03:46:43;;;;;;;8.90;7.97;;;25.80;90.70;;;;;;5054652;28;20416;-78
2022/08/25 03:49:12;;;;;;;7.40;6.80;;;25.80;90.90;;;;;;5043197;28;20111;-79
2022/08/25 03:51:45;;;;;;;8.68;7.60;;;25.80;90.80;;;;;;5035915;28;20042;-76
2022/08/25 03:54:13;;;;;;;12.07;8.10;;;25.70;90.90;;;;;;5054379;28;20029;-78
2022/08/25 03:56:38;;;;;;;8.75;7.85;;;25.70;90.90;;;;;;5056196;28;20053;-77
2022/08/25 03:59:07;;;;;;;8.52;7.72;;;25.70;90.90;;;;;;5056125;28;20048;-80
2022/08/25 04:01:35;;;;;;;10.35;7.43;;;25.50;91.00;;;;;;5056142;28;20022;-79
2022/08/25 04:04:01;;;;;;;7.60;6.90;;;25.50;91.20;;;;;;5056028;28;20102;-76
2022/08/25 04:06:26;;;;;;;11.15;7.53;;;25.40;91.20;;;;;;5050188;28;20422;-76
2022/08/25 04:08:52;;;;;;;8.70;7.47;;;25.30;91.30;;;;;;5035671;28;20087;-78
2022/08/25 04:11:21;;;;;;;8.43;7.63;;;25.30;91.50;;;;;;5035878;28;20501;-79
2022/08/25 04:13:48;;;;;;;11.15;7.60;;;25.30;91.40;;;;;;5035861;28;20038;-75
2022/08/25 04:16:17;;;;;;;10.05;7.25;;;25.40;91.10;;;;;;5036028;28;20076;-74
2022/08/25 04:18:44;;;;;;;8.95;7.60;;;25.50;90.80;;;;;;5035534;28;20029;-74
2022/08/25 04:21:11;;;;;;;8.73;7.47;;;25.60;90.60;;;;;;5035532;28;20017;-73
2022/08/25 04:23:39;;;;;;;10.23;7.75;;;25.70;90.40;;;;;;5035840;28;20052;-74
2022/08/25 04:26:10;;;;;;;8.88;7.70;;;25.80;90.30;;;;;;5035878;28;20022;-76
2022/08/25 04:28:36;;;;;;;14.25;7.95;;;25.80;90.20;;;;;;5036365;28;20067;-78
2022/08/25 04:31:05;;;;;;;9.43;8.18;;;25.70;90.30;;;;;;5041145;28;20146;-74
2022/08/25 04:33:31;;;;;;;14.75;7.82;;;25.60;90.60;;;;;;5054313;28;20040;-75
2022/08/25 04:35:57;;;;;;;9.80;8.82;;;25.50;90.80;;;;;;5055290;28;20013;-76
2022/08/25 04:38:24;;;;;;;9.18;7.93;;;25.60;90.40;;;;;;5053053;28;20032;-75
2022/08/25 04:41:05;;;;;;;11.35;8.52;;;25.60;90.40;;;;;;5055499;28;20029;-74
2022/08/25 04:43:33;;;;;;;12.43;8.13;;;25.70;90.30;;;;;;5054860;28;20035;-74
2022/08/25 04:46:03;;;;;;;12.95;8.60;;;25.70;90.20;;;;;;5054663;28;20014;-75
2022/08/25 04:48:31;;;;;;;14.27;8.75;;;25.70;90.30;;;;;;5046606;28;20025;-75
2022/08/25 04:50:56;;;;;;;11.63;7.43;;;25.70;90.30;;;;;;5035349;28;20053;-75
2022/08/25 04:53:22;;;;;;;11.07;7.35;;;25.60;90.30;;;;;;5033854;28;20382;-79
2022/08/25 04:55:48;;;;;;;13.20;7.15;;;25.70;90.30;;;;;;5035237;28;20029;-77
2022/08/25 04:58:15;;;;;;;10.43;6.93;;;25.70;90.30;;;;;;5035676;28;20371;-78
2022/08/25 05:00:42;;;;;;;9.20;7.57;;;25.70;90.20;;;;;;5050778;28;20105;-80
2022/08/25 05:03:08;;;;;;;11.52;7.18;;;25.70;90.20;;;;;;5047542;28;20017;-76
2022/08/25 05:05:37;;;;;;;12.07;7.38;;;25.70;90.00;;;;;;5053184;28;20025;-75
2022/08/25 05:08:05;;;;;;;9.75;7.40;;;25.70;89.90;;;;;;5034810;28;20230;-76
2022/08/25 05:10:31;;;;;;;9.35;7.90;;;25.80;89.80;;;;;;5034263;28;20456;-76
2022/08/25 05:12:57;;;;;;;8.93;6.72;;;25.70;89.80;;;;;;5034213;28;20036;-76
2022/08/25 05:18:09;;;;;;;9.30;6.97;;;25.80;89.80;;;;;;5034931;28;20043;-76
2022/08/25 05:20:36;;;;;;;8.80;6.70;;;25.80;89.70;;;;;;5034791;28;20022;-76
2022/08/25 05:23:02;;;;;;;7.53;6.50;;;25.70;89.80;;;;;;5034374;28;20026;-76
2022/08/25 05:25:28;;;;;;;9.38;6.82;;;25.70;89.70;;;;;;5033832;28;20093;-76
2022/08/25 05:27:54;;;;;;;11.38;7.40;;;25.80;89.70;;;;;;5034588;28;20087;-75
2022/08/25 05:30:20;;;;;;;11.82;7.00;;;25.70;89.40;;;;;;5034274;28;20475;-76
2022/08/25 05:32:45;;;;;;;9.82;6.68;;;25.70;89.30;;;;;;5032946;28;20038;-75
2022/08/25 05:35:11;;;;;;;8.90;6.13;;;25.70;89.30;;;;;;5034493;28;20103;-75
2022/08/25 05:37:36;;;;;;;10.00;6.40;;;25.70;89.10;;;;;;5034334;28;20048;-76
2022/08/25 05:40:05;;;;;;;6.18;5.57;;;25.70;89.20;;;;;;5033871;28;20033;-75
2022/08/25 05:42:30;;;;;;;9.40;5.38;;;25.70;89.20;;;;;;5034318;28;20029;-75
2022/08/25 05:44:56;;;;;;;8.63;6.05;;;25.70;89.40;;;;;;5040029;28;20021;-75
2022/08/25 05:47:22;;;;;;;10.90;6.00;;;25.70;89.40;;;;;;5053758;28;20029;-75
2022/08/25 05:49:48;;;;;;;11.57;5.85;;;25.70;89.40;;;;;;5043918;28;20029;-75
2022/08/25 05:52:14;;;;;;;8.82;5.50;;;25.70;89.50;;;;;;5034177;28;20029;-75
2022/08/25 05:54:39;;;;;;;17.65;6.25;;;25.70;89.70;;;;;;5038820;28;20052;-75
2022/08/25 05:57:06;;;;;;;10.32;5.75;;;25.70;89.00;;;;;;5038507;28;20045;-73
2022/08/25 05:59:32;;;;;;;10.48;4.80;;;25.70;89.10;;;;;;5048072;28;20086;-73
2022/08/25 06:04:42;;;;;;;7.40;3.55;;;25.60;90.40;;;;;;5043769;28;20075;-73
2022/08/25 06:07:08;;;;;;;8.88;4.13;;;25.50;90.60;;;;;;5037156;28;20057;-73
2022/08/25 06:09:36;;;;;;;6.80;3.97;;;25.50;90.80;;;;;;5033682;28;20055;-74
2022/08/25 06:12:01;;;;;;;7.60;4.50;;;25.50;90.90;;;;;;5036438;28;20037;-73
2022/08/25 06:14:27;;;;;;;7.55;4.05;;;25.50;90.80;;;;;;5038362;28;20441;-72
2022/08/25 06:16:53;;;;;;;10.20;4.18;;;25.50;90.80;;;;;;5034611;28;20033;-73
2022/08/25 06:19:19;;;;;;;11.23;5.47;;;25.50;90.80;;;;;;5034979;28;20029;-72
2022/08/25 06:21:45;;;;;;;8.73;4.93;;;25.50;90.40;;;;;;5034447;28;20483;-74
2022/08/25 06:24:11;;;;;;;6.80;4.60;;;25.60;90.40;;;;;;5043406;28;20105;-75
2022/08/25 06:26:37;;;;;;;9.95;4.28;;;25.50;90.60;;;;;;5033285;28;20463;-72
2022/08/25 06:29:03;;;;;;;9.18;4.13;;;25.60;90.70;;;;;;5037373;28;20028;-73
2022/08/25 06:31:28;;;;;;;12.63;4.47;;;25.50;90.50;;;;;;5047881;28;20029;-73
2022/08/25 06:33:54;;;;;;;7.75;4.88;;;25.60;90.50;;;;;;5047400;28;20036;-76
2022/08/25 06:36:20;;;;;;;10.40;4.30;;;25.60;90.40;;;;;;5040203;28;20032;-72
2022/08/25 06:38:46;;;;;;;7.53;4.25;;;25.60;90.40;;;;;;5036305;28;20052;-74
2022/08/25 06:41:13;;;;;;;7.05;4.13;;;25.60;90.60;;;;;;5033099;28;20026;-76
2022/08/25 06:43:42;;;;;;;10.23;4.30;;;25.60;90.60;;;;;;5032661;28;20044;-77
2022/08/25 06:46:21;;;;;;;9.07;4.05;;;25.50;90.50;;;;;;5038895;28;20180;-75
2022/08/25 06:48:47;;;;;;;6.25;4.03;;;25.50;90.60;;;;;;5052333;28;20021;-78
2022/08/25 06:51:15;;;;;;;7.45;3.92;;;25.60;90.50;;;;;;5037280;28;20112;-74
2022/08/25 06:53:42;;;;;;;4.75;3.90;;;25.60;90.40;;;;;;5051357;28;20025;-72
2022/08/25 06:56:08;;;;;;;11.13;3.50;;;25.60;90.40;;;;;;5045900;28;20041;-76
2022/08/25 06:58:35;;;;;;;10.55;3.35;;;25.60;90.20;;;;;;5034778;28;20017;-74
2022/08/25 07:01:20;;;;;;;6.78;3.70;;;25.60;90.00;;;;;;5033968;28;20025;-74
2022/08/25 07:03:47;;;;;;;5.40;3.10;;;25.60;89.70;;;;;;5037109;28;20029;-73
2022/08/25 07:06:13;;;;;;;9.63;4.10;;;25.60;89.80;;;;;;5033188;28;20022;-73
2022/08/25 07:08:39;;;;;;;9.48;3.75;;;25.70;89.40;;;;;;5034309;28;20509;-76
2022/08/25 07:11:09;;;;;;;6.70;4.00;;;25.60;89.40;;;;;;5051351;28;20032;-72
2022/08/25 07:13:35;;;;;;;9.25;3.67;;;25.60;89.10;;;;;;5071256;28;20089;-70
2022/08/25 07:16:01;;;;;;;9.80;4.03;;;25.60;89.00;;;;;;5046125;28;20359;-74
2022/08/25 07:18:28;;;;;;;14.52;3.83;;;25.60;89.00;;;;;;5049564;28;20083;-71
2022/08/25 07:20:55;;;;;;;9.93;4.05;;;25.70;89.00;;;;;;5053010;28;20036;-72
2022/08/25 07:23:21;;;;;;;15.48;4.07;;;25.60;89.10;;;;;;5052713;28;20040;-74
2022/08/25 07:25:48;;;;;;;18.75;4.68;;;25.60;90.40;;;;;;5052593;28;20492;-74
2022/08/25 07:28:15;;;;;;;16.17;4.47;;;25.70;90.80;;;;;;5052521;28;20025;-71
2022/08/25 07:30:42;;;;;;;21.17;4.70;;;25.70;90.80;;;;;;5038105;28;20490;-73
2022/08/25 07:33:07;;;;;;;25.20;4.90;;;25.70;90.80;;;;;;5041286;28;20036;-75
2022/08/25 07:35:35;;;;;;;17.40;3.92;;;25.70;90.90;;;;;;5052719;28;20075;-75
2022/08/25 07:38:02;;;;;;;13.63;3.90;;;25.70;90.80;;;;;;5052556;28;20067;-75
2022/08/25 07:40:34;;;;;;;10.95;3.70;;;25.70;90.70;;;;;;5052618;28;20090;-72
2022/08/25 07:43:07;;;;;;;8.30;4.15;;;25.70;91.10;;;;;;5052509;28;20485;-73
2022/08/25 07:45:34;;;;;;;8.43;3.78;;;25.80;91.00;;;;;;5052613;28;20094;-73
2022/08/25 07:48:05;;;;;;;9.68;4.18;;;25.80;91.00;;;;;;5033275;28;20032;-73
2022/08/25 07:50:31;;;;;;;10.73;4.10;;;25.80;93.70;;;;;;5043015;28;20338;-73
2022/08/25 07:52:57;;;;;;;10.15;3.55;;;25.90;93.20;;;;;;5038564;28;20040;-80
2022/08/25 07:55:25;;;;;;;34.83;6.43;;;25.90;92.30;;;;;;5043076;28;20083;-72
2022/08/25 07:57:52;;;;;;;32.50;6.35;;;25.90;91.80;;;;;;5047167;28;20497;-71
2022/08/25 08:00:19;;;;;;;25.30;4.38;;;25.90;91.10;;;;;;5046017;28;20033;-72
2022/08/25 08:02:44;;;;;;;15.52;4.57;;;25.90;90.90;;;;;;5042698;28;20524;-71
2022/08/25 08:05:11;;;;;;;19.50;4.60;;;26.00;90.60;;;;;;5034692;28;20505;-72
2022/08/25 08:07:37;;;;;;;13.90;4.03;;;26.00;90.40;;;;;;5040066;28;20471;-73
2022/08/25 08:10:05;;;;;;;8.88;3.38;;;26.00;90.00;;;;;;5045997;28;20055;-73
2022/08/25 08:12:32;;;;;;;11.90;3.75;;;26.00;89.70;;;;;;5038014;28;20471;-72
2022/08/25 08:14:59;;;;;;;10.00;3.58;;;26.00;88.50;;;;;;5040158;28;20467;-71
2022/08/25 08:17:24;;;;;;;13.40;3.47;;;26.10;88.30;;;;;;5034285;28;20478;-73
2022/08/25 08:19:50;;;;;;;9.60;3.05;;;26.10;88.40;;;;;;5036566;28;20029;-73
2022/08/25 08:22:17;;;;;;;10.93;2.95;;;26.10;88.30;;;;;;5037317;28;20033;-73
2022/08/25 08:24:44;;;;;;;11.20;3.35;;;26.20;88.70;;;;;;5039670;28;20114;-72
2022/08/25 08:27:12;;;;;;;11.95;3.75;;;26.20;88.40;;;;;;5044842;28;20029;-72
2022/08/25 08:29:38;;;;;;;12.60;4.20;;;26.20;88.40;;;;;;5052470;28;20378;-73
2022/08/25 08:32:07;;;;;;;20.88;4.07;;;26.20;88.40;;;;;;5053686;28;20040;-74
2022/08/25 08:34:33;;;;;;;8.65;3.20;;;26.20;88.10;;;;;;5042017;28;20021;-73
2022/08/25 08:37:00;;;;;;;11.52;3.30;;;26.20;86.60;;;;;;5049672;28;20017;-72
2022/08/25 08:39:27;;;;;;;6.85;3.60;;;26.30;86.10;;;;;;5047604;28;20037;-74
2022/08/25 08:42:17;;;;;;;14.40;4.15;;;26.30;86.40;;;;;;5053202;28;20059;-73
2022/08/25 08:44:45;;;;;;;17.20;4.20;;;26.30;88.00;;;;;;5041880;28;20052;-72
2022/08/25 08:47:26;;;;;;;13.25;3.72;;;26.30;88.70;;;;;;5053031;28;20037;-74
2022/08/25 08:50:01;;;;;;;15.23;3.83;;;26.40;88.50;;;;;;5044053;28;20036;-75
2022/08/25 08:52:51;;;;;;;10.98;3.90;;;26.40;89.00;;;;;;5039382;28;20067;-73
2022/08/25 08:55:29;;;;;;;11.05;3.83;;;26.40;89.50;;;;;;5049412;28;20075;-73
2022/08/25 08:57:58;;;;;;;10.23;3.28;;;26.40;88.90;;;;;;5052728;28;20110;-73
2022/08/25 09:00:24;;;;;;;10.20;3.88;;;26.40;88.50;;;;;;5033825;28;20056;-74
2022/08/25 09:02:57;;;;;;;8.07;3.80;;;26.40;88.90;;;;;;5042274;28;20033;-73
2022/08/25 09:05:27;;;;;;;9.65;3.78;;;26.50;89.10;;;;;;5050656;28;20409;-73
2022/08/25 09:07:59;;;;;;;8.25;3.90;;;26.50;89.50;;;;;;5053175;28;20028;-73
2022/08/25 09:10:33;;;;;;;5.40;2.72;;;26.50;89.40;;;;;;5036362;28;20029;-73
2022/08/25 09:13:13;;;;;;;8.77;3.10;;;26.50;86.90;;;;;;5048514;28;20405;-73
2022/08/25 09:18:37;;;;;;;7.18;3.17;;;26.60;87.80;;;;;;5045807;28;20159;-73
2022/08/25 09:21:20;;;;;;;10.20;3.15;;;26.60;87.80;;;;;;5051927;28;20051;-73
2022/08/25 09:23:51;;;;;;;9.88;3.40;;;26.60;87.30;;;;;;5043471;28;20032;-72
2022/08/25 09:26:28;;;;;;;7.78;3.08;;;26.60;88.10;;;;;;5050981;28;20402;-73
2022/08/25 09:29:16;;;;;;;8.07;3.50;;;26.50;88.20;;;;;;5043540;28;20506;-73
2022/08/25 09:31:41;;;;;;;6.15;3.08;;;26.50;88.30;;;;;;5050494;28;20079;-73
2022/08/25 09:34:17;;;;;;;5.70;3.08;;;26.60;87.30;;;;;;5053074;28;20028;-73
2022/08/25 09:36:44;;;;;;;5.70;2.63;;;26.60;87.30;;;;;;5042830;28;20541;-74
2022/08/25 09:39:11;;;;;;;7.63;2.88;;;26.60;86.10;;;;;;5051366;28;20017;-73
2022/08/25 09:41:58;;;;;;;6.35;2.63;;;26.60;86.30;;;;;;5047952;28;20078;-74
2022/08/25 09:44:26;;;;;;;5.15;2.65;;;26.60;86.10;;;;;;5041599;28;20033;-72
2022/08/25 09:47:00;;;;;;;5.47;2.67;;;26.60;85.70;;;;;;5056122;28;20070;-74
2022/08/25 09:49:48;;;;;;;7.15;2.58;;;26.70;85.70;;;;;;5045405;28;20028;-73
2022/08/25 09:52:26;;;;;;;10.15;3.10;;;26.70;85.50;;;;;;5054144;28;20033;-75
2022/08/25 09:54:56;;;;;;;16.42;4.18;;;26.70;86.00;;;;;;5050006;28;20017;-75
2022/08/25 09:57:44;;;;;;;18.33;3.53;;;26.70;86.70;;;;;;5053734;28;20056;-75
2022/08/25 10:00:15;;;;;;;25.38;4.03;;;26.70;86.30;;;;;;5042132;28;20441;-75
2022/08/25 10:02:42;;;;;;;8.48;2.85;;;26.70;86.10;;;;;;5055192;28;20024;-74
2022/08/25 10:05:24;;;;;;;15.18;4.22;;;26.80;85.00;;;;;;5062156;28;20103;-74
2022/08/25 10:08:02;;;;;;;14.35;4.40;;;26.70;85.50;;;;;;5052928;28;20060;-74
2022/08/25 10:10:37;;;;;;;14.20;4.43;;;26.80;85.00;;;;;;5052440;28;20024;-74
2022/08/25 10:13:17;;;;;;;15.25;4.13;;;26.80;85.40;;;;;;5036256;28;20036;-74
2022/08/25 10:15:43;;;;;;;11.73;4.00;;;26.80;85.40;;;;;;5052724;28;20027;-75
2022/08/25 10:18:24;;;;;;;12.88;3.70;;;26.80;85.40;;;;;;5047042;28;20017;-74
2022/08/25 10:21:11;;;;;;;8.60;3.55;;;26.80;85.30;;;;;;5035883;28;20474;-75
2022/08/25 10:23:50;;;;;;;9.13;2.92;;;26.80;84.40;;;;;;5042035;28;20387;-76
2022/08/25 10:26:46;;;;;;;5.18;2.67;;;26.80;84.20;;;;;;5040569;28;20029;-75
2022/08/25 10:29:41;;;;;;;6.85;2.63;;;26.80;83.30;;;;;;5045711;28;20037;-76
2022/08/25 10:32:20;;;;;;;7.97;2.75;;;26.90;83.40;;;;;;5040208;28;20553;-75
2022/08/25 10:34:49;;;;;;;10.02;2.90;;;26.90;83.10;;;;;;5051031;28;20025;-76
2022/08/25 10:37:39;;;;;;;5.72;2.65;;;26.90;83.10;;;;;;5044021;28;20041;-73
2022/08/25 10:40:23;;;;;;;7.32;2.80;;;27.00;83.20;;;;;;5045544;28;20039;-72
2022/08/25 10:43:10;;;;;;;8.30;3.15;;;27.00;83.20;;;;;;5033356;28;20013;-74
2022/08/25 10:45:46;;;;;;;9.05;2.58;;;27.10;83.20;;;;;;5032061;28;20034;-75
2022/08/25 10:48:34;;;;;;;7.63;1.88;;;27.10;82.60;;;;;;5033974;28;20037;-74
2022/08/25 10:51:18;;;;;;;5.05;2.80;;;27.20;81.60;;;;;;5043400;28;20064;-75
2022/08/25 10:53:56;;;;;;;7.30;2.47;;;27.20;82.30;;;;;;5035546;28;20041;-74
2022/08/25 10:56:25;;;;;;;4.88;2.53;;;27.20;82.60;;;;;;5031266;28;20037;-74
2022/08/25 10:59:21;;;;;;;7.20;2.50;;;27.20;82.30;;;;;;5040651;28;20768;-74
2022/08/25 11:02:11;;;;;;;7.47;2.25;;;27.20;82.00;;;;;;5050405;28;20032;-74
2022/08/25 11:04:50;;;;;;;4.10;2.40;;;27.20;82.10;;;;;;5043676;28;20067;-73
2022/08/25 11:07:43;;;;;;;6.53;2.55;;;27.10;82.40;;;;;;5038970;28;20021;-73
2022/08/25 11:10:21;;;;;;;7.53;2.42;;;27.20;82.40;;;;;;5043944;28;20031;-74
2022/08/25 11:12:58;;;;;;;7.20;2.50;;;27.20;82.50;;;;;;5038285;28;20045;-75
2022/08/25 11:15:47;;;;;;;9.13;2.63;;;27.20;82.90;;;;;;5049825;28;20033;-74
2022/08/25 11:18:14;;;;;;;6.47;2.20;;;27.20;83.10;;;;;;5042499;28;20036;-75
2022/08/25 11:20:45;;;;;;;5.95;2.53;;;27.20;83.00;;;;;;5037178;28;20029;-74
2022/08/25 11:23:26;;;;;;;7.40;3.00;;;27.20;82.80;;;;;;5043269;28;20028;-77
2022/08/25 11:25:59;;;;;;;4.15;2.05;;;27.20;82.80;;;;;;5032636;28;20024;-73
2022/08/25 11:29:01;;;;;;;5.10;2.30;;;27.20;82.60;;;;;;5041487;28;20111;-73
2022/08/25 11:31:28;;;;;;;6.00;2.45;;;27.20;83.10;;;;;;5035610;28;20504;-74
2022/08/25 11:33:55;;;;;;;6.50;2.50;;;27.30;81.60;;;;;;5035208;28;20075;-75
2022/08/25 11:36:31;;;;;;;4.57;2.45;;;27.30;80.80;;;;;;5046057;28;20057;-72
2022/08/25 11:39:03;;;;;;;6.22;2.58;;;27.30;81.00;;;;;;5043885;28;20076;-72
2022/08/25 11:41:43;;;;;;;;;;;27.30;81.70;;;;;;5038466;28;20043;-73
2022/08/25 11:44:40;;;;;;;6.10;2.15;;;27.40;81.70;;;;;;5043050;28;19920;-73
2022/08/25 11:47:24;;;;;;;6.75;2.53;;;27.40;81.30;;;;;;5028152;28;20061;-72
2022/08/25 11:49:58;;;;;;;4.53;2.42;;;27.40;81.20;;;;;;5033019;28;20100;-71
2022/08/25 11:52:33;;;;;;;6.78;2.28;;;27.50;81.30;;;;;;5037397;28;20091;-71
2022/08/25 11:55:14;;;;;;;5.85;2.13;;;27.40;81.30;;;;;;5051548;28;20036;-72
2022/08/25 11:57:42;;;;;;;8.73;2.13;;;27.50;81.50;;;;;;5039164;28;20041;-72
2022/08/25 12:00:12;;;;;;;4.50;2.50;;;27.50;81.40;;;;;;5040746;28;20096;-72
2022/08/25 12:02:42;;;;;;;4.35;2.40;;;27.50;81.60;;;;;;5043760;28;20036;-73
2022/08/25 12:05:14;;;;;;;6.00;1.83;;;27.60;81.70;;;;;;5040774;28;20029;-72
2022/08/25 12:08:37;;;;;;;3.65;2.20;;;27.50;82.30;;;;;;5043756;28;20024;-72
2022/08/25 12:11:04;;;;;;;4.68;2.20;;;27.60;81.90;;;;;;5041932;28;20037;-72
2022/08/25 12:13:41;;;;;;;6.22;2.72;;;27.60;82.10;;;;;;5043710;28;20033;-72
2022/08/25 12:16:38;;;;;;;7.75;2.22;;;27.60;82.10;;;;;;5059406;28;20486;-73
2022/08/25 12:19:27;;;;;;;2.15;1.58;;;27.60;82.30;;;;;;5036858;28;20509;-73
2022/08/25 12:21:57;;;;;;;3.20;2.10;;;27.60;82.00;;;;;;5026907;28;20045;-72
2022/08/25 12:24:41;;;;;;;3.33;1.88;;;27.70;82.20;;;;;;5045504;28;20033;-72
2022/08/25 12:27:24;;;;;;;5.30;2.75;;;27.70;82.30;;;;;;5040268;28;20055;-72
2022/08/25 12:30:21;;;;;;;6.15;3.63;;;27.80;81.60;;;;;;5049960;28;20552;-72
2022/08/25 12:33:12;;;;;;;6.22;2.42;;;27.80;81.90;;;;;;5047089;28;20033;-73
2022/08/25 12:35:52;;;;;;;8.23;3.22;;;27.80;82.10;;;;;;5039568;28;20033;-72
2022/08/25 12:38:35;;;;;;;7.53;4.55;;;27.80;82.40;;;;;;5046242;28;20021;-72
2022/08/25 12:41:18;;;;;;;10.27;4.43;;;27.90;82.50;;;;;;5041314;28;20022;-75
2022/08/25 12:43:46;;;;;;;8.80;4.13;;;27.90;82.30;;;;;;5040858;28;20017;-72
2022/08/25 12:46:28;;;;;;;6.45;3.40;;;27.90;82.30;;;;;;5045395;28;20370;-73
2022/08/25 12:49:33;;;;;;;6.55;2.78;;;27.90;82.20;;;;;;5038696;28;20421;-76
2022/08/25 12:52:09;;;;;;;10.18;3.10;;;27.90;82.20;;;;;;5045934;28;20057;-74
2022/08/25 12:54:40;;;;;;;3.92;2.50;;;27.90;82.40;;;;;;5045325;28;20104;-75
2022/08/25 12:57:37;;;;;;;7.70;3.35;;;27.90;82.50;;;;;;5053447;28;20097;-74
2022/08/25 13:00:28;;;;;;;10.18;3.45;;;27.90;82.80;;;;;;5039047;28;20025;-75
2022/08/25 13:03:36;;;;;;;5.45;2.85;;;28.00;82.70;;;;;;5053585;28;20025;-74
2022/08/25 13:06:21;;;;;;;7.70;2.92;;;27.90;82.60;;;;;;5039157;28;20081;-75
2022/08/25 13:08:49;;;;;;;6.28;2.95;;;28.00;82.70;;;;;;5052407;28;20036;-75
2022/08/25 13:11:29;;;;;;;6.22;2.90;;;28.00;82.90;;;;;;5047680;28;20116;-74